createdAt,value
2023-11-12T00:01:36.915Z,92.50
2023-11-12T00:04:38.731Z,89.80
2023-11-12T00:07:41.453Z,95.40
2023-11-12T00:10:43.286Z,99.30
2023-11-12T00:13:44.983Z,104.20
2023-11-12T00:16:49.313Z,96.90
2023-11-12T00:19:51.626Z,95.00
2023-11-12T00:22:53.365Z,101.20
2023-11-12T00:25:55.783Z,94.90
2023-11-12T00:28:57.553Z,92.70
2023-11-12T00:31:59.538Z,100.20
2023-11-12T00:35:02.126Z,104.50
2023-11-12T00:38:04.293Z,105.50
2023-11-12T00:41:06.088Z,105.80
2023-11-12T00:44:08.105Z,106.30
2023-11-12T00:47:10.116Z,108.70
2023-11-12T00:50:11.773Z,105.10
2023-11-12T00:56:15.716Z,109.40
2023-11-12T00:59:17.420Z,114.70
2023-11-12T01:02:21.091Z,110.30
2023-11-12T01:05:22.848Z,110.40
2023-11-12T01:08:24.545Z,121.80
2023-11-12T01:11:26.467Z,117.30
2023-11-12T01:14:28.179Z,116.00
2023-11-12T01:17:30.230Z,112.60
2023-11-12T01:20:31.911Z,116.10
2023-11-12T01:26:35.259Z,125.80
2023-11-12T01:29:36.831Z,125.40
2023-11-12T01:35:40.249Z,130.00
2023-11-12T01:38:41.977Z,133.50
2023-11-12T01:41:43.998Z,130.00
2023-11-12T01:44:46.688Z,132.70
2023-11-12T01:47:48.676Z,122.90
2023-11-12T01:50:51.424Z,132.90
2023-11-12T01:53:53.853Z,127.10
2023-11-12T01:56:55.688Z,129.60
2023-11-12T01:59:57.428Z,125.40
2023-11-12T02:02:59.727Z,136.40
2023-11-12T02:06:05.383Z,127.70
2023-11-12T02:09:07.060Z,131.50
2023-11-12T02:12:09.276Z,126.70
2023-11-12T02:15:11.602Z,125.00
2023-11-12T02:18:13.402Z,128.00
2023-11-12T02:21:15.119Z,128.70
2023-11-12T02:24:16.908Z,130.20
2023-11-12T02:27:18.742Z,133.60
2023-11-12T02:30:20.668Z,142.10
2023-11-12T02:33:22.676Z,139.50
2023-11-12T02:36:24.384Z,135.10
2023-11-12T02:39:26.149Z,138.40
2023-11-12T02:42:28.005Z,138.50
2023-11-12T02:45:29.960Z,151.40
2023-11-12T02:49:03.224Z,150.00
2023-11-12T02:52:04.928Z,162.00
2023-11-12T02:55:07.072Z,155.10
2023-11-12T02:58:08.685Z,154.70
2023-11-12T03:01:10.662Z,166.30
2023-11-12T03:04:12.494Z,171.20
2023-11-12T03:07:14.384Z,167.70
2023-11-12T03:10:16.061Z,169.00
2023-11-12T03:13:17.797Z,164.20
2023-11-12T03:16:19.495Z,160.00
2023-11-12T03:22:22.811Z,154.60
2023-11-12T03:28:26.253Z,150.40
2023-11-12T03:31:28.195Z,144.20
2023-11-12T03:34:29.898Z,141.70
2023-11-12T03:37:31.990Z,135.60
2023-11-12T03:40:33.650Z,131.80
2023-11-12T03:46:37.110Z,123.20
2023-11-12T03:49:39.622Z,120.70
2023-11-12T03:52:41.355Z,121.00
2023-11-12T03:58:44.632Z,122.60
2023-11-12T04:04:48.042Z,118.20
2023-11-12T04:07:50.682Z,123.50
2023-11-12T04:10:52.927Z,122.30
2023-11-12T04:13:54.641Z,123.10
2023-11-12T04:16:56.362Z,127.20
2023-11-12T04:23:00.312Z,134.00
2023-11-12T04:26:02.257Z,127.10
2023-11-12T04:29:04.064Z,126.90
2023-11-12T04:32:06.055Z,127.80
2023-11-12T04:35:08.309Z,122.10
2023-11-12T04:38:09.995Z,118.60
2023-11-12T04:41:11.719Z,118.00
2023-11-12T04:47:15.187Z,122.40
2023-11-12T04:50:16.875Z,119.60
2023-11-12T04:53:18.628Z,116.30
2023-11-12T05:02:23.919Z,120.60
2023-11-12T05:05:25.653Z,124.80
2023-11-12T05:08:28.240Z,127.50
2023-11-12T05:11:30.053Z,125.90
2023-11-12T05:17:33.381Z,121.20
2023-11-12T05:26:38.550Z,124.20
2023-11-12T05:32:41.775Z,113.30
2023-11-12T05:38:45.205Z,105.20
2023-11-12T05:44:48.805Z,85.80
2023-11-12T05:47:50.740Z,76.80
2023-11-12T05:50:52.370Z,70.00
2023-11-12T05:59:57.500Z,71.40
2023-11-12T06:02:59.401Z,74.90
2023-11-12T06:06:01.172Z,72.00
2023-11-12T06:09:02.841Z,72.70
2023-11-12T06:18:08.724Z,76.90
2023-11-12T06:21:10.489Z,77.90
2023-11-12T06:24:12.271Z,74.90
2023-11-12T06:27:14.098Z,73.80
2023-11-12T06:30:15.743Z,77.20
2023-11-12T06:39:20.884Z,72.10
2023-11-12T06:45:24.363Z,64.20
2023-11-12T06:48:26.641Z,57.20
2023-11-12T06:51:28.463Z,61.40
2023-11-12T06:54:30.579Z,53.30
2023-11-12T06:57:32.290Z,44.20
2023-11-12T07:00:34.014Z,41.90
2023-11-12T07:03:38.959Z,43.00
2023-11-12T07:06:41.074Z,38.00
2023-11-12T07:09:43.688Z,36.60
2023-11-12T07:12:45.535Z,36.30
2023-11-12T07:15:47.440Z,37.00
2023-11-12T07:18:54.238Z,33.10
2023-11-12T07:21:56.697Z,34.00
2023-11-12T07:28:02.710Z,34.00
2023-11-12T07:37:08.072Z,28.70
2023-11-12T07:40:10.848Z,30.00
2023-11-12T07:43:12.550Z,31.20
2023-11-12T07:46:14.449Z,33.10
2023-11-12T07:49:16.291Z,35.60
2023-11-12T07:52:18.106Z,39.20
2023-11-12T07:58:21.585Z,40.90
2023-11-12T08:01:23.217Z,43.10
2023-11-12T08:04:25.101Z,42.00
2023-11-12T08:07:26.863Z,45.20
2023-11-12T08:10:28.469Z,44.20
2023-11-12T08:16:31.915Z,46.60
2023-11-12T08:19:33.870Z,44.70
2023-11-12T08:22:35.526Z,43.60
2023-11-12T08:28:38.761Z,42.90
2023-11-12T08:31:40.696Z,39.40
2023-11-12T08:34:42.538Z,42.10
2023-11-12T08:37:44.482Z,42.60
2023-11-12T08:40:46.220Z,41.70
2023-11-12T08:46:52.423Z,45.50
2023-11-12T08:49:55.253Z,43.60
2023-11-12T08:52:57.078Z,52.90
2023-11-12T08:55:58.895Z,48.20
2023-11-12T08:59:00.824Z,46.70
2023-11-12T09:02:02.582Z,45.20
2023-11-12T09:05:04.876Z,41.20
2023-11-12T09:08:06.648Z,41.60
2023-11-12T09:11:09.020Z,41.60
2023-11-12T09:14:11.594Z,44.20
2023-11-12T09:17:13.331Z,40.70
2023-11-12T09:20:15.113Z,40.50
2023-11-12T09:23:16.795Z,42.40
2023-11-12T09:29:23.574Z,43.40
2023-11-12T09:35:26.982Z,42.70
2023-11-12T09:38:28.744Z,43.10
2023-11-12T09:44:32.957Z,47.20
2023-11-12T09:47:46.531Z,46.10
2023-11-12T09:50:48.854Z,46.10
2023-11-12T09:53:51.651Z,43.80
2023-11-12T09:57:06.157Z,46.90
2023-11-12T10:00:11.618Z,47.30
2023-11-12T10:03:13.772Z,49.60
2023-11-12T10:06:15.510Z,48.30
2023-11-12T10:09:30.881Z,49.10
2023-11-12T10:12:32.600Z,47.30
2023-11-12T10:15:34.940Z,48.50
2023-11-12T10:18:36.957Z,48.90
2023-11-12T10:24:59.726Z,56.50
2023-11-12T10:28:01.476Z,52.00
2023-11-12T10:31:03.347Z,52.00
2023-11-12T10:34:05.147Z,53.20
2023-11-12T10:37:10.331Z,54.90
2023-11-12T10:40:12.698Z,51.20
2023-11-12T10:43:14.586Z,46.70
2023-11-12T10:46:16.315Z,45.30
2023-11-12T10:49:18.041Z,45.10
2023-11-12T10:52:19.935Z,40.20
2023-11-12T10:55:22.935Z,40.50
2023-11-12T10:58:24.940Z,39.90
2023-11-12T11:01:26.990Z,40.70
2023-11-12T11:04:30.129Z,39.50
2023-11-12T11:07:31.874Z,36.00
2023-11-12T11:10:37.010Z,37.90
2023-11-12T11:13:39.052Z,36.70
2023-11-12T11:16:47.988Z,38.70
2023-11-12T11:19:49.783Z,41.00
2023-11-12T11:22:51.711Z,37.00
2023-11-12T11:26:33.640Z,37.50
2023-11-12T11:32:37.421Z,38.00
2023-11-12T11:35:39.227Z,37.10
2023-11-12T11:38:41.010Z,32.70
2023-11-12T11:41:51.696Z,34.70
2023-11-12T11:45:00.680Z,32.10
2023-11-12T11:48:06.427Z,30.40
2023-11-12T11:51:34.302Z,29.20
2023-11-12T11:54:36.621Z,28.30
2023-11-12T11:57:46.315Z,29.60
2023-11-12T12:00:58.965Z,29.80
2023-11-12T12:04:04.465Z,25.40
2023-11-12T12:07:06.220Z,27.00
2023-11-12T12:10:08.373Z,26.10
2023-11-12T12:13:10.101Z,27.20
2023-11-12T12:16:11.830Z,24.70
2023-11-12T12:19:21.821Z,23.70
2023-11-12T12:22:29.280Z,25.60
2023-11-12T12:25:32.795Z,23.70
2023-11-12T12:28:34.527Z,25.70
2023-11-12T12:31:36.413Z,25.00
2023-11-12T12:34:42.123Z,25.50
2023-11-12T12:37:43.965Z,23.50
2023-11-12T12:40:50.773Z,23.80
2023-11-12T12:43:53.056Z,23.20
2023-11-12T12:46:54.882Z,24.20
2023-11-12T12:49:56.620Z,23.00
2023-11-12T12:53:15.037Z,21.40
2023-11-12T12:56:16.948Z,23.20
2023-11-12T12:59:18.731Z,22.50
2023-11-12T13:02:20.409Z,22.80
2023-11-12T13:05:22.236Z,21.70
2023-11-12T13:08:24.090Z,21.40
2023-11-12T13:11:25.679Z,21.50
2023-11-12T13:17:28.878Z,22.20
2023-11-12T13:20:30.798Z,22.50
2023-11-12T13:23:33.441Z,21.40
2023-11-12T13:26:35.222Z,22.80
2023-11-12T13:29:36.949Z,24.20
2023-11-12T13:32:39.165Z,24.70
2023-11-12T13:35:41.020Z,22.00
2023-11-12T13:38:43.018Z,22.60
2023-11-12T13:41:44.838Z,25.30
2023-11-12T13:44:49.701Z,23.10
2023-11-12T13:47:52.685Z,23.30
2023-11-12T13:50:54.320Z,24.80
2023-11-12T13:53:56.062Z,23.20
2023-11-12T13:56:57.858Z,26.00
2023-11-12T13:59:59.713Z,23.30
2023-11-12T14:03:01.775Z,23.20
2023-11-12T14:06:04.524Z,24.60
2023-11-12T14:09:06.258Z,22.70
2023-11-12T14:12:08.483Z,23.00
2023-11-12T14:15:10.854Z,23.40
2023-11-12T14:18:13.257Z,23.20
2023-11-12T14:21:14.979Z,25.40
2023-11-12T14:24:16.805Z,22.90
2023-11-12T14:27:18.444Z,22.70
2023-11-12T14:30:20.459Z,24.50
2023-11-12T14:33:22.851Z,22.30
2023-11-12T14:36:24.632Z,22.00
2023-11-12T14:39:26.291Z,21.20
2023-11-12T14:42:28.035Z,22.40
2023-11-12T14:45:31.269Z,20.70
2023-11-12T14:48:33.332Z,23.20
2023-11-12T14:51:35.712Z,22.80
2023-11-12T14:54:37.503Z,20.20
2023-11-12T14:57:40.567Z,22.00
2023-11-12T15:00:42.393Z,21.60
2023-11-12T15:03:44.338Z,23.00
2023-11-12T15:06:46.160Z,22.50
2023-11-12T15:09:47.916Z,23.50
2023-11-12T15:12:50.319Z,24.00
2023-11-12T15:15:52.453Z,24.60
2023-11-12T15:18:54.295Z,23.60
2023-11-12T15:21:55.943Z,27.40
2023-11-12T15:24:58.515Z,30.10
2023-11-12T15:28:00.485Z,28.50
2023-11-12T15:31:02.258Z,25.80
2023-11-12T15:34:06.376Z,27.90
2023-11-12T15:37:09.965Z,26.90
2023-11-12T15:40:12.170Z,27.00
2023-11-12T15:43:13.927Z,29.80
2023-11-12T15:46:15.635Z,40.10
2023-11-12T15:49:17.448Z,38.60
2023-11-12T15:52:19.262Z,37.00
2023-11-12T15:58:22.775Z,34.20
2023-11-12T16:01:24.566Z,32.00
2023-11-12T16:04:26.374Z,27.70
2023-11-12T16:07:28.112Z,28.00
2023-11-12T16:13:31.522Z,30.50
2023-11-12T16:19:34.836Z,27.80
2023-11-12T16:25:40.848Z,30.00
2023-11-12T16:28:42.583Z,32.70
2023-11-12T16:34:45.909Z,32.70
2023-11-12T16:40:49.399Z,35.10
2023-11-12T16:43:51.280Z,35.50
2023-11-12T16:46:52.967Z,38.90
2023-11-12T16:49:55.154Z,36.50
2023-11-12T16:52:57.113Z,38.10
2023-11-12T16:55:58.846Z,36.90
2023-11-12T16:59:00.683Z,37.50
2023-11-12T17:05:04.969Z,38.60
2023-11-12T17:08:06.755Z,37.90
2023-11-12T17:11:08.465Z,34.90
2023-11-12T17:14:10.465Z,35.80
2023-11-12T17:17:12.140Z,35.60
2023-11-12T17:20:13.997Z,33.30
2023-11-12T17:23:15.822Z,30.00
2023-11-12T17:26:17.618Z,29.50
2023-11-12T17:29:19.580Z,31.30
2023-11-12T17:32:21.404Z,28.10
2023-11-12T17:35:23.287Z,29.30
2023-11-12T17:38:25.086Z,28.20
2023-11-12T17:44:28.438Z,26.80
2023-11-12T17:47:30.414Z,28.00
2023-11-12T17:50:32.114Z,26.60
2023-11-12T17:53:34.071Z,27.70
2023-11-12T17:56:35.962Z,29.90
2023-11-12T17:59:37.664Z,27.30
2023-11-12T18:05:42.019Z,27.40
2023-11-12T18:08:43.855Z,27.30
2023-11-12T18:17:49.056Z,26.20
2023-11-12T18:20:55.671Z,26.40
2023-11-12T18:23:57.611Z,29.40
2023-11-12T18:26:59.236Z,26.00
2023-11-12T18:30:02.212Z,26.10
2023-11-12T18:33:04.015Z,26.20
2023-11-12T18:36:06.198Z,27.30
2023-11-12T18:39:07.907Z,27.40
2023-11-12T18:45:12.480Z,27.40
2023-11-12T18:48:14.177Z,27.60
2023-11-12T18:51:15.979Z,27.60
2023-11-12T18:54:17.715Z,27.40
2023-11-12T18:57:19.440Z,25.30
2023-11-12T19:00:21.642Z,24.60
2023-11-12T19:03:23.588Z,26.40
2023-11-12T19:06:25.339Z,25.50
2023-11-12T19:09:27.217Z,26.90
2023-11-12T19:12:28.993Z,28.90
2023-11-12T19:15:30.835Z,29.20
2023-11-12T19:18:32.689Z,32.90
2023-11-12T19:21:34.455Z,42.30
2023-11-12T19:24:37.041Z,38.20
2023-11-12T19:27:38.744Z,38.20
2023-11-12T19:30:40.716Z,35.50
2023-11-12T19:33:45.728Z,32.50
2023-11-12T19:36:47.471Z,31.20
2023-11-12T19:39:49.229Z,26.10
2023-11-12T19:42:51.200Z,27.60
2023-11-12T19:45:53.051Z,29.00
2023-11-12T19:48:54.906Z,28.40
2023-11-12T19:51:56.676Z,30.90
2023-11-12T19:54:58.540Z,35.50
2023-11-12T19:58:00.269Z,34.20
2023-11-12T20:01:02.148Z,33.60
2023-11-12T20:04:05.742Z,35.00
2023-11-12T20:07:07.746Z,33.80
2023-11-12T20:10:09.757Z,34.50
2023-11-12T20:13:11.765Z,34.30
2023-11-12T20:16:19.375Z,32.80
2023-11-12T20:19:21.049Z,37.70
2023-11-12T20:22:22.839Z,39.00
2023-11-12T20:25:24.634Z,36.80
2023-11-12T20:28:26.424Z,33.40
2023-11-12T20:31:28.164Z,35.40
2023-11-12T20:37:31.411Z,37.30
2023-11-12T20:40:33.173Z,36.20
2023-11-12T20:46:38.761Z,34.80
2023-11-12T20:49:40.609Z,38.50
2023-11-12T20:52:42.432Z,35.40
2023-11-12T20:55:44.280Z,33.70
2023-11-12T20:58:46.069Z,35.40
2023-11-12T21:04:49.505Z,34.40
2023-11-12T21:07:51.437Z,36.40
2023-11-12T21:10:53.381Z,33.60
2023-11-12T21:16:56.681Z,34.80
2023-11-12T21:23:00.170Z,32.30
2023-11-12T21:26:01.989Z,31.10
2023-11-12T21:32:05.711Z,30.80
2023-11-12T21:35:07.761Z,31.90
2023-11-12T21:38:09.487Z,32.90
2023-11-12T21:47:20.790Z,36.10
2023-11-12T21:50:22.673Z,34.30
2023-11-12T21:53:24.329Z,35.50
2023-11-12T21:59:31.142Z,36.00
2023-11-12T22:02:32.911Z,32.60
2023-11-12T22:11:45.840Z,32.30
2023-11-12T22:14:47.436Z,36.90
2023-11-12T22:17:49.449Z,43.20
2023-11-12T22:20:52.429Z,35.80
2023-11-12T22:23:54.141Z,31.70
2023-11-12T22:29:57.323Z,36.50
2023-11-12T22:32:58.970Z,35.40
2023-11-12T22:36:00.584Z,34.30
2023-11-12T22:42:04.079Z,42.60
2023-11-12T22:45:10.937Z,47.90
2023-11-12T22:48:12.755Z,39.50
2023-11-12T22:54:16.017Z,41.10
2023-11-12T23:03:32.267Z,47.60
2023-11-12T23:06:34.000Z,45.60
2023-11-12T23:09:35.730Z,49.20
2023-11-12T23:12:37.865Z,41.30
2023-11-12T23:15:40.639Z,46.00
2023-11-12T23:18:42.305Z,49.60
2023-11-12T23:24:45.680Z,47.50
2023-11-12T23:30:49.186Z,37.20
2023-11-12T23:33:51.181Z,39.30
2023-11-12T23:36:53.050Z,37.50
2023-11-12T23:39:54.693Z,39.60
2023-11-12T23:42:56.408Z,34.90
2023-11-12T23:48:59.945Z,34.90
2023-11-12T23:52:01.736Z,37.20
2023-11-12T23:55:05.283Z,36.40
2023-11-12T23:58:06.941Z,38.00
